Terminal Aerodrome Forecast
Issued by NWS

Home | Current Version | Previous Version | Text Only | Print | Product List | Glossary On
Versions: 1 2 3 4 5 6 7 8 9 10 11 12 13 14 15 16 17 18 19 20 21 22
470
FTUS41 KGYX 250520
TAFRKD
TAF
KRKD 250520Z 2506/2606 28003KT P6SM SCT080
     FM251500 21008G16KT P6SM SCT100 SCT250
     FM252000 22004KT P6SM SCT050 BKN080
      AMD LTD TO CLD VIS AND WIND=

USA.gov is the U.S. government's official web portal to all federal, state and local government web resources and services.